Time;durP1;ratioP1;P1;durP2;ratioP2;P2;SDS_P1;SDS_P2;PMS_P1;PMS_P2;Temp;Humidity;BMP_temperature;BMP_pressure;BME280_temperature;BME280_humidity;BME280_pressure;Samples;Min_cycle;Max_cycle;Signal;HPM_P1;HPM_P2
2022/09/13 00:00:51;;;;;;;5.72;2.63;;;;;;;;;;5003406;28;20130;-59
2022/09/13 00:03:18;;;;;;;6.22;2.60;;;;;;;;;;5001244;28;20049;-63
2022/09/13 00:05:45;;;;;;;4.60;2.40;;;;;;;;;;5007985;28;20085;-61
2022/09/13 00:08:12;;;;;;;6.30;2.45;;;;;;;;;;5001382;28;20058;-59
2022/09/13 00:10:39;;;;;;;4.97;2.78;;;;;;;;;;5007563;28;20056;-61
2022/09/13 00:13:08;;;;;;;6.70;2.53;;;;;;;;;;4992218;28;20054;-58
2022/09/13 00:15:34;;;;;;;;;;;;;;;;;;4988621;28;20136;-64
2022/09/13 00:18:01;;;;;;;5.22;2.45;;;;;;;;;;4984204;28;19984;-57
2022/09/13 00:20:28;;;;;;;5.20;2.25;;;;;;;;;;4988818;28;20069;-58
2022/09/13 00:22:54;;;;;;;4.88;2.60;;;;;;;;;;4984004;28;20050;-61
2022/09/13 00:25:21;;;;;;;4.10;2.22;;;;;;;;;;4988741;28;20166;-62
2022/09/13 00:27:47;;;;;;;5.72;2.65;;;;;;;;;;4984996;28;20046;-67
2022/09/13 00:30:15;;;;;;;4.72;2.63;;;;;;;;;;5003519;28;20050;-71
2022/09/13 00:32:42;;;;;;;4.50;2.30;;;;;;;;;;5001489;28;20076;-66
2022/09/13 00:35:09;;;;;;;5.95;2.85;;;;;;;;;;4988048;28;20238;-62
2022/09/13 00:37:35;;;;;;;4.30;2.35;;;;;;;;;;4987791;28;20085;-65
2022/09/13 00:40:03;;;;;;;6.25;2.67;;;;;;;;;;4998487;28;20060;-61
2022/09/13 00:42:31;;;;;;;6.90;2.50;;;;;;;;;;5023855;28;20053;-68
2022/09/13 00:44:58;;;;;;;;;;;;;;;;;;5002349;28;20077;-60
2022/09/13 00:47:27;;;;;;;5.57;2.47;;;;;;;;;;4987016;28;19925;-67
2022/09/13 00:49:56;;;;;;;5.30;2.67;;;;;;;;;;4995125;28;20064;-67
2022/09/13 00:52:23;;;;;;;5.25;2.50;;;;;;;;;;5018378;28;20045;-63
2022/09/13 00:54:52;;;;;;;5.07;2.67;;;;;;;;;;4988574;28;20055;-64
2022/09/13 00:57:20;;;;;;;5.82;2.95;;;;;;;;;;4986911;28;20116;-60
2022/09/13 00:59:50;;;;;;;5.32;2.70;;;;;;;;;;4981713;28;20077;-68
2022/09/13 01:02:16;;;;;;;6.05;2.80;;;;;;;;;;4987128;28;20054;-66
2022/09/13 01:04:45;;;;;;;5.53;2.72;;;;;;;;;;4981676;28;20069;-63
2022/09/13 01:07:13;;;;;;;5.65;2.90;;;;;;;;;;4986947;28;20061;-63
2022/09/13 01:09:42;;;;;;;5.50;2.70;;;;;;;;;;4981972;28;20133;-67
2022/09/13 01:12:13;;;;;;;5.15;2.72;;;;;;;;;;5001078;28;20053;-59
2022/09/13 01:14:40;;;;;;;4.78;2.53;;;;;;;;;;4998457;28;20108;-62
2022/09/13 01:17:07;;;;;;;5.50;2.97;;;;;;;;;;4992829;28;20094;-65
2022/09/13 01:19:33;;;;;;;5.53;2.70;;;;;;;;;;4981517;28;20058;-62
2022/09/13 01:22:18;;;;;;;6.22;3.08;;;;;;;;;;4986726;28;20134;-64
2022/09/13 01:24:55;;;;;;;5.00;2.63;;;;;;;;;;4981924;28;20042;-61
2022/09/13 01:27:28;;;;;;;5.32;2.80;;;;;;;;;;4986864;28;20137;-58
2022/09/13 01:30:13;;;;;;;5.43;2.97;;;;;;;;;;4980958;28;20077;-59
2022/09/13 01:32:49;;;;;;;5.53;2.83;;;;;;;;;;5006799;28;20141;-68
2022/09/13 01:35:21;;;;;;;5.90;2.67;;;;;;;;;;5000564;28;20115;-70
2022/09/13 01:37:51;;;;;;;8.55;4.57;;;;;;;;;;5006263;28;20050;-69
2022/09/13 01:40:26;;;;;;;11.25;3.20;;;;;;;;;;5001547;28;20042;-61
2022/09/13 01:43:03;;;;;;;6.03;2.88;;;;;;;;;;4994299;28;20087;-63
2022/09/13 01:45:37;;;;;;;5.65;3.03;;;;;;;;;;5000990;28;20048;-66
2022/09/13 01:48:09;;;;;;;6.75;3.10;;;;;;;;;;4986804;28;20113;-66
2022/09/13 01:50:39;;;;;;;5.72;2.92;;;;;;;;;;5001398;28;20140;-64
2022/09/13 01:53:07;;;;;;;6.90;3.00;;;;;;;;;;5003168;28;20056;-65
2022/09/13 01:55:34;;;;;;;;;;;;;;;;;;5021648;28;20053;-58
2022/09/13 01:58:07;;;;;;;5.25;2.80;;;;;;;;;;5001528;28;19979;-58
2022/09/13 02:00:37;;;;;;;5.05;2.85;;;;;;;;;;5006125;28;20053;-63
2022/09/13 02:03:07;;;;;;;6.40;3.03;;;;;;;;;;4986839;28;20066;-61
2022/09/13 02:05:36;;;;;;;7.40;3.38;;;;;;;;;;4988474;28;20136;-66
2022/09/13 02:08:05;;;;;;;7.28;3.33;;;;;;;;;;4999396;28;20046;-60
2022/09/13 02:10:34;;;;;;;5.80;3.40;;;;;;;;;;5009662;28;20050;-64
2022/09/13 02:13:02;;;;;;;6.32;2.72;;;;;;;;;;5003575;28;20108;-63
2022/09/13 02:15:31;;;;;;;7.53;3.13;;;;;;;;;;5026007;28;20053;-66
2022/09/13 02:18:02;;;;;;;5.78;2.80;;;;;;;;;;5010541;28;20144;-61
2022/09/13 02:20:31;;;;;;;6.03;3.03;;;;;;;;;;4990112;28;20105;-66
2022/09/13 02:23:01;;;;;;;5.18;2.83;;;;;;;;;;4996213;28;20133;-60
2022/09/13 02:25:30;;;;;;;6.47;2.78;;;;;;;;;;5025875;28;20050;-61
2022/09/13 02:28:00;;;;;;;5.85;2.70;;;;;;;;;;5003730;28;20103;-66
2022/09/13 02:30:27;;;;;;;5.22;2.58;;;;;;;;;;5008806;28;20060;-61
2022/09/13 02:32:56;;;;;;;8.20;2.72;;;;;;;;;;5020728;28;20092;-62
2022/09/13 02:35:25;;;;;;;6.05;2.75;;;;;;;;;;5009923;28;20108;-60
2022/09/13 02:37:56;;;;;;;5.38;2.67;;;;;;;;;;5001223;28;20054;-62
2022/09/13 02:40:26;;;;;;;6.75;2.63;;;;;;;;;;4989839;28;20120;-60
2022/09/13 02:42:56;;;;;;;5.07;2.50;;;;;;;;;;4986425;28;20054;-59
2022/09/13 02:45:27;;;;;;;7.38;3.42;;;;;;;;;;5008709;28;20136;-66
2022/09/13 02:47:57;;;;;;;5.25;2.83;;;;;;;;;;5006539;28;20069;-64
2022/09/13 02:50:37;;;;;;;5.60;2.88;;;;;;;;;;4991494;28;20054;-62
2022/09/13 02:53:11;;;;;;;10.70;5.97;;;;;;;;;;4969052;28;20047;-58
2022/09/13 02:55:42;;;;;;;5.50;2.97;;;;;;;;;;4991248;28;20054;-60
2022/09/13 02:58:12;;;;;;;11.38;5.97;;;;;;;;;;4991486;28;20105;-58
2022/09/13 03:00:39;;;;;;;6.82;3.65;;;;;;;;;;5021127;28;20152;-63
2022/09/13 03:03:06;;;;;;;9.75;4.60;;;;;;;;;;5009162;28;20149;-55
2022/09/13 03:05:34;;;;;;;12.57;6.68;;;;;;;;;;5002187;28;20088;-63
2022/09/13 03:08:01;;;;;;;6.22;3.17;;;;;;;;;;5009360;28;20058;-68
2022/09/13 03:10:35;;;;;;;5.60;2.90;;;;;;;;;;5000884;28;20054;-62
2022/09/13 03:13:20;;;;;;;4.53;2.60;;;;;;;;;;5009096;28;20054;-59
2022/09/13 03:15:53;;;;;;;5.55;2.70;;;;;;;;;;5002756;28;20057;-64
2022/09/13 03:18:29;;;;;;;5.78;2.88;;;;;;;;;;5008428;28;20050;-63
2022/09/13 03:21:01;;;;;;;5.15;2.92;;;;;;;;;;4976730;28;20055;-63
2022/09/13 03:23:44;;;;;;;5.72;2.90;;;;;;;;;;4969847;28;20054;-63
2022/09/13 03:26:25;;;;;;;7.18;2.88;;;;;;;;;;4980388;28;20070;-59
2022/09/13 03:28:56;;;;;;;5.15;2.50;;;;;;;;;;4989577;28;20058;-64
2022/09/13 03:31:28;;;;;;;5.80;2.80;;;;;;;;;;4983375;28;20085;-61
2022/09/13 03:33:57;;;;;;;5.53;2.83;;;;;;;;;;4988841;28;20070;-67
2022/09/13 03:36:27;;;;;;;7.07;2.75;;;;;;;;;;4982588;28;20069;-66
2022/09/13 03:38:56;;;;;;;5.32;2.78;;;;;;;;;;5007140;28;20054;-61
2022/09/13 03:41:27;;;;;;;4.82;2.47;;;;;;;;;;4990617;28;20055;-65
2022/09/13 03:43:55;;;;;;;7.55;2.97;;;;;;;;;;4988804;28;20101;-61
2022/09/13 03:46:25;;;;;;;6.50;3.00;;;;;;;;;;4993412;28;20397;-65
2022/09/13 03:48:53;;;;;;;5.97;2.83;;;;;;;;;;5008355;28;20050;-63
2022/09/13 03:51:19;;;;;;;5.30;2.80;;;;;;;;;;5002331;28;20084;-58
2022/09/13 03:53:48;;;;;;;5.63;2.92;;;;;;;;;;5007526;28;20123;-67
2022/09/13 03:56:16;;;;;;;5.45;2.70;;;;;;;;;;5002311;28;20058;-66
2022/09/13 03:58:44;;;;;;;5.30;3.03;;;;;;;;;;5007843;28;20058;-62
2022/09/13 04:01:11;;;;;;;6.93;2.65;;;;;;;;;;5000703;28;20057;-70
2022/09/13 04:03:37;;;;;;;5.47;2.72;;;;;;;;;;5008177;28;20052;-63
2022/09/13 04:06:04;;;;;;;6.00;2.88;;;;;;;;;;5001745;28;20089;-65
2022/09/13 04:08:31;;;;;;;4.63;2.40;;;;;;;;;;5024291;28;20346;-63
2022/09/13 04:10:58;;;;;;;5.60;3.00;;;;;;;;;;5024121;28;20144;-70
2022/09/13 04:13:24;;;;;;;5.90;2.65;;;;;;;;;;4999646;28;20072;-65
2022/09/13 04:15:53;;;;;;;6.22;2.78;;;;;;;;;;4987616;28;20054;-67
2022/09/13 04:18:19;;;;;;;5.43;3.05;;;;;;;;;;4998962;28;20058;-62
2022/09/13 04:20:53;;;;;;;5.07;2.70;;;;;;;;;;5007349;28;20050;-70
2022/09/13 04:23:19;;;;;;;6.60;2.78;;;;;;;;;;4999963;28;20061;-65
2022/09/13 04:25:46;;;;;;;6.68;2.85;;;;;;;;;;5006929;28;20058;-67
2022/09/13 04:28:12;;;;;;;8.85;3.50;;;;;;;;;;5000828;28;20112;-66
2022/09/13 04:30:39;;;;;;;5.53;2.75;;;;;;;;;;5006950;28;20081;-70
2022/09/13 04:33:06;;;;;;;7.00;2.88;;;;;;;;;;4991890;28;20046;-70
2022/09/13 04:35:34;;;;;;;6.38;2.75;;;;;;;;;;4987019;28;20177;-66
2022/09/13 04:38:01;;;;;;;4.83;2.63;;;;;;;;;;4989894;28;20045;-64
2022/09/13 04:40:27;;;;;;;5.03;2.60;;;;;;;;;;5006595;28;20084;-70
2022/09/13 04:42:54;;;;;;;5.50;2.72;;;;;;;;;;4997022;28;20061;-67
2022/09/13 04:45:21;;;;;;;14.55;6.45;;;;;;;;;;5007153;28;20050;-63
2022/09/13 04:47:51;;;;;;;6.28;3.33;;;;;;;;;;4999082;28;20050;-69
2022/09/13 04:50:19;;;;;;;6.50;2.95;;;;;;;;;;5003333;28;20054;-63
2022/09/13 04:52:46;;;;;;;6.47;2.95;;;;;;;;;;4999872;28;20050;-66
2022/09/13 04:55:13;;;;;;;8.70;2.92;;;;;;;;;;5002709;28;20213;-63
2022/09/13 04:57:39;;;;;;;5.95;3.17;;;;;;;;;;5004128;28;20057;-67
2022/09/13 05:00:06;;;;;;;7.07;3.08;;;;;;;;;;4997104;28;20057;-60
2022/09/13 05:02:33;;;;;;;6.32;3.08;;;;;;;;;;5003597;28;20061;-63
2022/09/13 05:04:59;;;;;;;5.80;2.75;;;;;;;;;;4998024;28;20053;-68
2022/09/13 05:07:27;;;;;;;5.53;3.22;;;;;;;;;;5002901;28;20072;-64
2022/09/13 05:09:54;;;;;;;6.65;3.15;;;;;;;;;;4996580;28;20119;-64
2022/09/13 05:12:20;;;;;;;10.68;5.25;;;;;;;;;;5002456;28;20058;-66
2022/09/13 05:14:47;;;;;;;7.32;3.50;;;;;;;;;;4996568;28;20061;-63
2022/09/13 05:17:13;;;;;;;14.15;5.63;;;;;;;;;;5003863;28;20050;-62
2022/09/13 05:19:40;;;;;;;12.57;3.95;;;;;;;;;;4997810;28;20047;-63
2022/09/13 05:22:06;;;;;;;5.95;3.00;;;;;;;;;;5004124;28;20062;-67
2022/09/13 05:24:34;;;;;;;16.00;8.20;;;;;;;;;;4997716;28;20136;-63
2022/09/13 05:27:01;;;;;;;21.38;9.85;;;;;;;;;;5006288;28;20149;-61
2022/09/13 05:29:27;;;;;;;7.80;4.07;;;;;;;;;;4999346;28;20101;-59
2022/09/13 05:31:54;;;;;;;6.63;3.15;;;;;;;;;;5003986;28;20046;-64
2022/09/13 05:34:20;;;;;;;7.85;3.63;;;;;;;;;;5001041;28;20054;-57
2022/09/13 05:36:49;;;;;;;5.55;3.08;;;;;;;;;;5001486;28;20057;-63
2022/09/13 05:39:17;;;;;;;6.72;3.38;;;;;;;;;;5020669;28;20076;-63
2022/09/13 05:41:45;;;;;;;9.10;2.90;;;;;;;;;;4995456;28;20054;-65
2022/09/13 05:44:11;;;;;;;5.95;3.13;;;;;;;;;;5004210;28;20112;-66
2022/09/13 05:46:38;;;;;;;5.93;2.92;;;;;;;;;;5000543;28;20049;-65
2022/09/13 05:49:05;;;;;;;6.20;2.80;;;;;;;;;;5006550;28;20055;-63
2022/09/13 05:51:31;;;;;;;6.43;3.17;;;;;;;;;;4987937;28;20054;-61
2022/09/13 05:53:58;;;;;;;5.18;2.75;;;;;;;;;;5004191;28;20050;-65
2022/09/13 05:56:26;;;;;;;5.57;2.70;;;;;;;;;;4990447;28;20051;-62
2022/09/13 05:58:54;;;;;;;9.00;4.35;;;;;;;;;;4986889;28;20141;-63
2022/09/13 06:01:21;;;;;;;7.15;3.90;;;;;;;;;;4981436;28;20046;-62
2022/09/13 06:03:48;;;;;;;7.30;3.10;;;;;;;;;;4986812;28;20105;-61
2022/09/13 06:06:16;;;;;;;7.28;3.53;;;;;;;;;;5002895;28;20057;-64
2022/09/13 06:08:42;;;;;;;13.93;6.80;;;;;;;;;;5006650;28;20053;-63
2022/09/13 06:11:10;;;;;;;8.05;4.32;;;;;;;;;;4998424;28;20513;-64
2022/09/13 06:13:37;;;;;;;6.68;3.20;;;;;;;;;;5006380;28;20076;-64
2022/09/13 06:16:06;;;;;;;6.20;3.00;;;;;;;;;;5000298;28;20058;-57
2022/09/13 06:18:33;;;;;;;12.23;4.93;;;;;;;;;;4986622;28;20042;-61
2022/09/13 06:21:00;;;;;;;11.65;6.13;;;;;;;;;;4985507;28;20054;-63
2022/09/13 06:23:27;;;;;;;7.97;4.15;;;;;;;;;;5000506;28;20066;-58
2022/09/13 06:26:00;;;;;;;8.07;4.32;;;;;;;;;;5006700;28;20057;-67
2022/09/13 06:28:27;;;;;;;14.60;7.35;;;;;;;;;;4984225;28;20074;-60
2022/09/13 06:30:59;;;;;;;15.18;7.88;;;;;;;;;;4986419;28;20065;-63
2022/09/13 06:33:27;;;;;;;16.88;8.18;;;;;;;;;;4996029;28;20057;-65
2022/09/13 06:35:53;;;;;;;17.60;8.50;;;;;;;;;;5022604;28;20132;-66
2022/09/13 06:38:21;;;;;;;19.58;9.20;;;;;;;;;;5016314;28;20104;-63
2022/09/13 06:40:48;;;;;;;15.57;8.50;;;;;;;;;;5005696;28;20077;-62
2022/09/13 06:43:15;;;;;;;8.70;5.07;;;;;;;;;;4984236;28;20054;-64
2022/09/13 06:45:43;;;;;;;18.67;8.70;;;;;;;;;;4969794;28;20066;-64
2022/09/13 06:48:10;;;;;;;14.52;7.00;;;;;;;;;;4972629;28;20058;-64
2022/09/13 06:50:38;;;;;;;25.73;10.27;;;;;;;;;;4989932;28;20062;-65
2022/09/13 06:53:04;;;;;;;14.40;6.97;;;;;;;;;;4985263;28;20061;-71
2022/09/13 06:55:31;;;;;;;22.55;11.07;;;;;;;;;;4989224;28;20050;-66
2022/09/13 06:57:58;;;;;;;23.10;11.35;;;;;;;;;;4990622;28;20042;-63
2022/09/13 07:00:24;;;;;;;21.63;11.75;;;;;;;;;;5008655;28;20049;-66
2022/09/13 07:02:51;;;;;;;23.35;11.27;;;;;;;;;;5002882;28;20073;-61
2022/09/13 07:05:19;;;;;;;12.60;6.53;;;;;;;;;;5008686;28;20054;-62
2022/09/13 07:07:47;;;;;;;16.10;7.97;;;;;;;;;;5009334;28;20064;-60
2022/09/13 07:10:14;;;;;;;17.00;8.80;;;;;;;;;;5002712;28;20324;-63
2022/09/13 07:12:41;;;;;;;17.20;7.65;;;;;;;;;;5008429;28;20137;-68
2022/09/13 07:15:08;;;;;;;26.80;10.90;;;;;;;;;;4987153;28;20054;-59
2022/09/13 07:17:34;;;;;;;11.68;5.47;;;;;;;;;;4989408;28;20085;-65
2022/09/13 07:20:01;;;;;;;22.92;11.43;;;;;;;;;;4984168;28;20050;-62
2022/09/13 07:22:28;;;;;;;19.20;9.98;;;;;;;;;;5006307;28;20057;-63
2022/09/13 07:24:56;;;;;;;22.08;10.40;;;;;;;;;;4985369;28;20105;-63
2022/09/13 07:27:22;;;;;;;21.83;10.77;;;;;;;;;;4989179;28;20054;-65
2022/09/13 07:29:49;;;;;;;13.88;6.28;;;;;;;;;;4983754;28;20050;-62
2022/09/13 07:32:15;;;;;;;26.33;9.38;;;;;;;;;;5005775;28;20078;-62
2022/09/13 07:34:42;;;;;;;18.67;9.55;;;;;;;;;;5000598;28;20108;-62
2022/09/13 07:37:08;;;;;;;32.50;13.63;;;;;;;;;;4988908;28;20050;-63
2022/09/13 07:39:35;;;;;;;26.45;12.07;;;;;;;;;;5002756;28;20050;-64
2022/09/13 07:42:03;;;;;;;21.08;9.77;;;;;;;;;;5008023;28;20124;-63
2022/09/13 07:44:29;;;;;;;25.95;13.38;;;;;;;;;;5001466;28;20062;-62
2022/09/13 07:46:56;;;;;;;17.27;8.25;;;;;;;;;;5008219;28;20074;-60
2022/09/13 07:49:23;;;;;;;16.30;6.25;;;;;;;;;;5008244;28;20068;-61
2022/09/13 07:51:51;;;;;;;22.15;9.98;;;;;;;;;;4984124;28;20057;-64
2022/09/13 07:54:19;;;;;;;30.75;12.55;;;;;;;;;;4987929;28;20058;-60
2022/09/13 07:56:48;;;;;;;21.92;9.52;;;;;;;;;;4991869;28;20054;-64
2022/09/13 07:59:17;;;;;;;18.40;8.77;;;;;;;;;;5013035;28;20136;-57
2022/09/13 08:01:44;;;;;;;13.00;6.53;;;;;;;;;;4996124;28;20057;-63
2022/09/13 08:04:12;;;;;;;18.38;8.50;;;;;;;;;;5007680;28;20053;-62
2022/09/13 08:06:40;;;;;;;24.87;9.73;;;;;;;;;;5006251;28;20057;-57
2022/09/13 08:09:07;;;;;;;22.75;9.93;;;;;;;;;;4987918;28;20061;-59
2022/09/13 08:11:34;;;;;;;10.82;5.57;;;;;;;;;;4983394;28;20050;-60
2022/09/13 08:14:01;;;;;;;11.40;5.05;;;;;;;;;;4988474;28;20046;-53
2022/09/13 08:16:29;;;;;;;19.25;7.88;;;;;;;;;;4983619;28;20148;-68
2022/09/13 08:18:57;;;;;;;9.93;4.53;;;;;;;;;;4988503;28;20173;-65
2022/09/13 08:21:24;;;;;;;14.00;7.53;;;;;;;;;;4987252;28;20053;-66
2022/09/13 08:23:54;;;;;;;17.67;8.48;;;;;;;;;;5007929;28;20056;-64
2022/09/13 08:26:20;;;;;;;17.52;6.05;;;;;;;;;;5002233;28;20214;-67
2022/09/13 08:28:47;;;;;;;10.50;5.00;;;;;;;;;;5006813;28;20064;-62
2022/09/13 08:31:16;;;;;;;21.23;7.50;;;;;;;;;;4997702;28;20038;-59
2022/09/13 08:33:44;;;;;;;15.73;8.77;;;;;;;;;;5004428;28;20073;-62
2022/09/13 08:36:11;;;;;;;28.83;12.43;;;;;;;;;;4986006;28;20053;-63
2022/09/13 08:38:38;;;;;;;24.95;11.15;;;;;;;;;;4982087;28;20053;-63
2022/09/13 08:41:17;;;;;;;33.50;11.95;;;;;;;;;;5003464;28;20054;-67
2022/09/13 08:43:48;;;;;;;19.38;9.30;;;;;;;;;;4998334;28;21339;-61
2022/09/13 08:46:21;;;;;;;12.13;6.20;;;;;;;;;;4987456;28;20046;-62
2022/09/13 08:48:50;;;;;;;11.90;5.75;;;;;;;;;;4981706;28;20058;-63
2022/09/13 08:51:24;;;;;;;14.38;7.75;;;;;;;;;;5002716;28;20124;-57
2022/09/13 08:53:50;;;;;;;17.10;8.95;;;;;;;;;;4995709;28;20137;-65
2022/09/13 08:56:20;;;;;;;21.30;10.13;;;;;;;;;;5006769;28;20049;-70
2022/09/13 08:59:03;;;;;;;18.95;9.45;;;;;;;;;;4988564;28;20057;-60
2022/09/13 09:01:38;;;;;;;19.08;8.73;;;;;;;;;;4986867;28;20054;-69
2022/09/13 09:04:12;;;;;;;10.82;5.75;;;;;;;;;;4995686;28;20053;-64
2022/09/13 09:06:39;;;;;;;14.63;7.15;;;;;;;;;;5005669;28;20073;-61
2022/09/13 09:09:08;;;;;;;15.48;7.82;;;;;;;;;;4999665;28;20060;-57
2022/09/13 09:11:34;;;;;;;;;;;;;;;;;;5006654;28;20054;-59
2022/09/13 09:14:03;;;;;;;14.20;6.47;;;;;;;;;;4999959;28;19925;-64
2022/09/13 09:16:33;;;;;;;16.30;7.07;;;;;;;;;;5006266;28;20046;-65
2022/09/13 09:19:04;;;;;;;13.82;7.13;;;;;;;;;;5000709;28;20052;-61
2022/09/13 09:21:32;;;;;;;15.18;6.93;;;;;;;;;;5007021;28;20060;-67
2022/09/13 09:24:01;;;;;;;11.77;6.25;;;;;;;;;;4995871;28;20058;-60
2022/09/13 09:26:30;;;;;;;10.85;5.35;;;;;;;;;;5003715;28;20057;-66
2022/09/13 09:28:58;;;;;;;10.27;5.05;;;;;;;;;;4997871;28;20112;-61
2022/09/13 09:31:31;;;;;;;12.00;6.03;;;;;;;;;;4986746;28;20053;-64
2022/09/13 09:34:04;;;;;;;9.82;5.18;;;;;;;;;;4981154;28;20110;-65
2022/09/13 09:36:37;;;;;;;7.47;4.10;;;;;;;;;;5003225;28;20133;-69
2022/09/13 09:39:04;;;;;;;9.95;4.97;;;;;;;;;;4981213;28;20073;-65
2022/09/13 09:41:32;;;;;;;10.15;4.93;;;;;;;;;;5006062;28;20049;-65
2022/09/13 09:44:01;;;;;;;12.50;5.13;;;;;;;;;;4987545;28;20046;-68
2022/09/13 09:46:30;;;;;;;8.15;3.92;;;;;;;;;;4987245;28;20108;-66
2022/09/13 09:49:02;;;;;;;9.45;4.43;;;;;;;;;;5006436;28;20046;-57
2022/09/13 09:51:29;;;;;;;9.75;4.60;;;;;;;;;;4982772;28;20078;-65
2022/09/13 09:54:00;;;;;;;9.05;3.60;;;;;;;;;;4986549;28;20093;-64
2022/09/13 09:56:30;;;;;;;7.25;3.42;;;;;;;;;;4996554;28;20105;-63
2022/09/13 09:58:56;;;;;;;7.40;3.35;;;;;;;;;;5005954;28;20054;-61
2022/09/13 10:01:25;;;;;;;7.35;3.53;;;;;;;;;;4986636;28;20054;-66
2022/09/13 10:03:53;;;;;;;8.20;3.28;;;;;;;;;;4986213;28;20058;-66
2022/09/13 10:06:20;;;;;;;6.65;3.08;;;;;;;;;;4981585;28;20141;-63
2022/09/13 10:08:53;;;;;;;8.02;3.47;;;;;;;;;;4986619;28;20062;-63
2022/09/13 10:11:23;;;;;;;5.53;2.90;;;;;;;;;;4991687;28;20050;-61
2022/09/13 10:14:00;;;;;;;6.43;2.88;;;;;;;;;;5006132;28;20050;-63
2022/09/13 10:16:28;;;;;;;5.65;2.70;;;;;;;;;;4999489;28;20069;-65
2022/09/13 10:18:55;;;;;;;6.05;2.60;;;;;;;;;;5008144;28;20062;-63
2022/09/13 10:21:23;;;;;;;7.72;2.80;;;;;;;;;;4993200;28;20050;-62
2022/09/13 10:23:50;;;;;;;6.97;2.88;;;;;;;;;;4990389;28;20066;-62
2022/09/13 10:26:17;;;;;;;5.13;2.55;;;;;;;;;;4989348;28;20105;-64
2022/09/13 10:28:47;;;;;;;14.30;3.95;;;;;;;;;;5010091;28;20050;-61
2022/09/13 10:31:15;;;;;;;8.45;3.67;;;;;;;;;;5004164;28;20046;-62
2022/09/13 10:33:43;;;;;;;5.43;2.85;;;;;;;;;;5009416;28;20147;-62
2022/09/13 10:36:14;;;;;;;6.03;2.50;;;;;;;;;;5003077;28;20053;-61
2022/09/13 10:38:41;;;;;;;6.82;3.20;;;;;;;;;;5009233;28;20155;-64
2022/09/13 10:41:09;;;;;;;5.72;2.40;;;;;;;;;;5009277;28;20140;-64
2022/09/13 10:43:36;;;;;;;5.87;2.87;;;;;;;;;;4987853;28;20058;-69
2022/09/13 10:46:06;;;;;;;5.50;2.78;;;;;;;;;;5005624;28;20309;-69
2022/09/13 10:48:44;;;;;;;6.38;3.08;;;;;;;;;;5001177;28;20061;-56
2022/09/13 10:51:18;;;;;;;5.53;2.33;;;;;;;;;;4989413;28;20104;-62
2022/09/13 10:53:44;;;;;;;5.90;2.15;;;;;;;;;;4984845;28;20078;-70
2022/09/13 10:56:19;;;;;;;4.75;1.83;;;;;;;;;;5005087;28;20050;-65
2022/09/13 10:58:45;;;;;;;5.38;2.13;;;;;;;;;;5001726;28;20120;-61
2022/09/13 11:01:40;;;;;;;7.38;2.08;;;;;;;;;;5025317;28;20049;-62
2022/09/13 11:04:31;;;;;;;4.47;1.70;;;;;;;;;;5003163;28;20070;-66
2022/09/13 11:07:02;;;;;;;2.58;1.52;;;;;;;;;;4989786;28;20151;-66
2022/09/13 11:09:32;;;;;;;4.35;1.70;;;;;;;;;;4984588;28;20054;-67
2022/09/13 11:12:02;;;;;;;3.92;2.08;;;;;;;;;;4989170;28;20054;-65
2022/09/13 11:14:37;;;;;;;4.55;1.95;;;;;;;;;;4999804;28;20057;-66
2022/09/13 11:17:12;;;;;;;4.90;1.80;;;;;;;;;;5009561;28;20049;-58
2022/09/13 11:20:02;;;;;;;3.03;1.42;;;;;;;;;;5003935;28;20054;-62
2022/09/13 11:22:38;;;;;;;3.05;1.38;;;;;;;;;;4989915;28;20050;-64
2022/09/13 11:25:13;;;;;;;3.58;1.70;;;;;;;;;;4983560;28;20053;-62
2022/09/13 11:27:46;;;;;;;2.67;1.35;;;;;;;;;;4988924;28;20058;-64
2022/09/13 11:30:15;;;;;;;2.22;1.30;;;;;;;;;;4979936;28;20062;-63
2022/09/13 11:32:57;;;;;;;8.40;1.30;;;;;;;;;;4989495;28;20050;-61
2022/09/13 11:35:41;;;;;;;3.15;1.50;;;;;;;;;;4980288;28;20054;-60
2022/09/13 11:38:15;;;;;;;3.55;1.70;;;;;;;;;;4989261;28;20061;-65
2022/09/13 11:40:46;;;;;;;6.50;1.77;;;;;;;;;;4982894;28;20050;-64
2022/09/13 11:43:25;;;;;;;4.18;1.08;;;;;;;;;;5004913;28;20054;-61
2022/09/13 11:45:57;;;;;;;2.13;1.00;;;;;;;;;;5000623;28;20058;-61
2022/09/13 11:48:38;;;;;;;3.42;1.13;;;;;;;;;;5008640;28;20108;-63
2022/09/13 11:51:10;;;;;;;1.63;1.15;;;;;;;;;;5001457;28;20054;-64
2022/09/13 11:53:44;;;;;;;2.38;1.33;;;;;;;;;;5007888;28;20080;-63
2022/09/13 11:56:13;;;;;;;1.83;1.08;;;;;;;;;;5002147;28;20127;-61
2022/09/13 11:58:46;;;;;;;2.72;1.20;;;;;;;;;;5004143;28;20073;-61
2022/09/13 12:01:17;;;;;;;2.67;1.30;;;;;;;;;;4982836;28;20110;-59
2022/09/13 12:03:47;;;;;;;3.88;1.20;;;;;;;;;;4988392;28;20050;-62
2022/09/13 12:06:19;;;;;;;1.08;0.90;;;;;;;;;;4982920;28;20053;-65
2022/09/13 12:08:47;;;;;;;2.38;1.25;;;;;;;;;;4988231;28;20057;-61
2022/09/13 12:11:18;;;;;;;1.20;1.00;;;;;;;;;;4995781;28;20112;-69
2022/09/13 12:13:46;;;;;;;3.20;1.10;;;;;;;;;;5006651;28;20053;-60
2022/09/13 12:16:13;;;;;;;;;;;;;;;;;;5001418;28;20045;-62
2022/09/13 12:18:41;;;;;;;1.55;1.00;;;;;;;;;;5007987;28;19948;-62
2022/09/13 12:21:10;;;;;;;5.35;1.17;;;;;;;;;;4992378;28;20058;-57
2022/09/13 12:23:41;;;;;;;1.13;0.98;;;;;;;;;;5008033;28;20046;-68
2022/09/13 12:26:10;;;;;;;1.83;1.20;;;;;;;;;;5001306;28;20116;-67
2022/09/13 12:28:39;;;;;;;2.58;1.20;;;;;;;;;;5007248;28;20068;-69
2022/09/13 12:31:10;;;;;;;2.88;1.17;;;;;;;;;;5000962;28;20057;-66
2022/09/13 12:33:39;;;;;;;3.72;1.50;;;;;;;;;;5008791;28;20062;-65
2022/09/13 12:36:27;;;;;;;4.22;1.20;;;;;;;;;;5000705;28;20046;-64
2022/09/13 12:39:04;;;;;;;3.92;1.35;;;;;;;;;;5000936;28;20053;-63
2022/09/13 12:41:36;;;;;;;2.28;1.33;;;;;;;;;;4996300;28;20043;-65
2022/09/13 12:44:10;;;;;;;2.42;1.25;;;;;;;;;;4987500;28;20127;-63
2022/09/13 12:46:44;;;;;;;3.50;1.17;;;;;;;;;;4982156;28;20070;-61
2022/09/13 12:49:23;;;;;;;7.47;1.70;;;;;;;;;;5003441;28;20062;-62
2022/09/13 12:52:06;;;;;;;2.13;1.10;;;;;;;;;;4998882;28;20054;-66
2022/09/13 12:54:43;;;;;;;3.05;1.38;;;;;;;;;;4996400;28;20054;-61
2022/09/13 12:57:17;;;;;;;2.42;1.05;;;;;;;;;;5000414;28;20089;-61
2022/09/13 13:00:17;;;;;;;3.00;1.08;;;;;;;;;;5021991;28;20065;-64
2022/09/13 13:02:45;;;;;;;1.98;0.90;;;;;;;;;;4925221;29;20055;-60
2022/09/13 13:05:21;;;;;;;2.23;1.00;;;;;;;;;;4930536;29;20055;-64
2022/09/13 13:07:51;;;;;;;5.93;1.15;;;;;;;;;;4962045;28;20120;-64
2022/09/13 13:10:29;;;;;;;8.48;1.10;;;;;;;;;;5006673;28;20092;-60
2022/09/13 13:12:57;;;;;;;1.80;0.90;;;;;;;;;;4995483;28;20057;-62
2022/09/13 13:15:45;;;;;;;2.13;0.80;;;;;;;;;;4986025;28;20387;-62
2022/09/13 13:18:22;;;;;;;3.42;1.23;;;;;;;;;;4981479;28;20050;-62
2022/09/13 13:21:05;;;;;;;3.25;0.82;;;;;;;;;;4971279;28;20092;-62
2022/09/13 13:23:33;;;;;;;6.72;1.00;;;;;;;;;;4970654;28;20082;-61
2022/09/13 13:26:04;;;;;;;2.45;1.00;;;;;;;;;;5005034;28;20138;-61
2022/09/13 13:29:04;;;;;;;1.98;0.80;;;;;;;;;;5000860;28;20152;-60
2022/09/13 13:31:35;;;;;;;3.33;0.90;;;;;;;;;;4986178;28;20058;-58
2022/09/13 13:34:02;;;;;;;3.67;1.00;;;;;;;;;;4973286;28;20082;-64
2022/09/13 13:36:32;;;;;;;1.77;1.00;;;;;;;;;;4967699;28;20059;-57
2022/09/13 13:39:00;;;;;;;3.88;1.20;;;;;;;;;;4961468;28;20142;-61
2022/09/13 13:41:43;;;;;;;6.65;1.10;;;;;;;;;;4986508;28;20049;-64
2022/09/13 13:44:24;;;;;;;2.33;1.25;;;;;;;;;;4994527;28;20046;-64
2022/09/13 13:46:52;;;;;;;4.10;0.95;;;;;;;;;;4966225;28;20116;-61
2022/09/13 13:49:37;;;;;;;7.07;1.00;;;;;;;;;;4981767;28;20239;-61
2022/09/13 13:52:25;;;;;;;1.00;0.75;;;;;;;;;;4986480;28;20050;-64
2022/09/13 13:54:59;;;;;;;1.65;0.82;;;;;;;;;;4983744;28;20068;-62
2022/09/13 13:57:29;;;;;;;3.00;0.88;;;;;;;;;;5009034;28;20056;-64
2022/09/13 13:59:57;;;;;;;1.98;0.90;;;;;;;;;;5003620;28;20049;-60
2022/09/13 14:02:29;;;;;;;4.47;1.20;;;;;;;;;;5010195;28;20126;-62
2022/09/13 14:05:10;;;;;;;2.30;0.85;;;;;;;;;;4996907;28;20309;-62
2022/09/13 14:07:53;;;;;;;2.55;1.10;;;;;;;;;;4970480;28;20118;-62
2022/09/13 14:10:22;;;;;;;2.38;0.90;;;;;;;;;;4972512;28;20062;-60
2022/09/13 14:12:56;;;;;;;2.00;0.93;;;;;;;;;;4990265;28;20089;-64
2022/09/13 14:15:37;;;;;;;7.30;0.90;;;;;;;;;;4983618;28;20058;-63
2022/09/13 14:18:19;;;;;;;2.35;0.93;;;;;;;;;;4999366;28;20041;-65
2022/09/13 14:21:01;;;;;;;1.38;0.82;;;;;;;;;;4995486;28;20057;-63
2022/09/13 14:23:28;;;;;;;1.05;0.70;;;;;;;;;;4989708;28;20058;-67
2022/09/13 14:25:59;;;;;;;2.30;0.95;;;;;;;;;;4992031;28;20042;-60
2022/09/13 14:28:27;;;;;;;5.90;1.10;;;;;;;;;;5006504;28;20050;-59
2022/09/13 14:30:53;;;;;;;;;;;;;;;;;;4998694;28;20050;-64
2022/09/13 14:33:23;;;;;;;1.10;0.80;;;;;;;;;;5021339;28;19929;-65
2022/09/13 14:35:56;;;;;;;4.93;0.85;;;;;;;;;;5016215;28;20054;-65
2022/09/13 14:38:25;;;;;;;1.73;0.85;;;;;;;;;;5004283;28;20050;-61
2022/09/13 14:40:52;;;;;;;1.98;0.80;;;;;;;;;;4997055;28;20060;-62
2022/09/13 14:43:20;;;;;;;1.52;0.82;;;;;;;;;;5022538;28;20062;-62
2022/09/13 14:45:50;;;;;;;6.05;0.95;;;;;;;;;;5002375;28;20057;-63
2022/09/13 14:48:18;;;;;;;3.50;1.00;;;;;;;;;;5001552;28;20049;-65
2022/09/13 14:50:50;;;;;;;2.15;0.90;;;;;;;;;;5004490;28;20057;-62
2022/09/13 14:53:18;;;;;;;1.17;0.70;;;;;;;;;;5011421;28;20053;-62
2022/09/13 14:55:45;;;;;;;;;;;;;;;;;;4988946;28;20066;-61
2022/09/13 14:58:16;;;;;;;1.40;0.85;;;;;;;;;;4999527;28;19933;-62